createdAt,value
2022-09-22T00:01:26.956Z,9.22
2022-09-22T00:04:00.314Z,9.19
2022-09-22T00:06:30.983Z,9.16
2022-09-22T00:09:00.640Z,8.96
2022-09-22T00:11:36.857Z,8.88
2022-09-22T00:14:20.665Z,9.02
2022-09-22T00:16:50.353Z,9.06
2022-09-22T00:19:30.962Z,8.99
2022-09-22T00:21:57.712Z,9.05
2022-09-22T00:24:26.664Z,9.10
2022-09-22T00:26:59.035Z,9.09
2022-09-22T00:29:28.523Z,9.12
2022-09-22T00:31:56.364Z,9.13
2022-09-22T00:34:26.216Z,9.15
2022-09-22T00:36:53.422Z,9.01
2022-09-22T00:39:20.533Z,8.89
2022-09-22T00:41:51.715Z,8.93
2022-09-22T00:44:21.221Z,9.04
2022-09-22T00:46:58.702Z,8.89
2022-09-22T00:50:03.102Z,8.60
2022-09-22T00:52:42.383Z,8.63
2022-09-22T00:55:38.599Z,8.63
2022-09-22T00:58:12.358Z,8.56
2022-09-22T01:00:39.703Z,8.61
2022-09-22T01:03:12.232Z,8.66
2022-09-22T01:05:41.241Z,8.68
2022-09-22T01:08:11.099Z,8.67
2022-09-22T01:10:38.366Z,8.57
2022-09-22T01:13:23.674Z,8.29
2022-09-22T01:16:31.965Z,8.17
2022-09-22T01:19:21.258Z,8.02
2022-09-22T01:21:59.087Z,8.06
2022-09-22T01:24:56.324Z,7.97
2022-09-22T01:27:47.116Z,7.88
2022-09-22T01:30:19.961Z,7.92
2022-09-22T01:33:04.728Z,8.09
2022-09-22T01:36:01.265Z,8.16
2022-09-22T01:39:05.948Z,8.21
2022-09-22T01:42:07.083Z,8.25
2022-09-22T01:45:10.639Z,8.15
2022-09-22T01:48:13.457Z,8.19
2022-09-22T01:50:49.654Z,8.22
2022-09-22T01:53:21.736Z,8.27
2022-09-22T01:55:54.831Z,8.37
2022-09-22T01:58:30.589Z,8.38
2022-09-22T02:01:10.927Z,8.45
2022-09-22T02:03:46.055Z,8.50
2022-09-22T02:06:20.700Z,8.20
2022-09-22T02:09:05.292Z,8.19
2022-09-22T02:11:32.241Z,8.26
2022-09-22T02:13:59.389Z,8.30
2022-09-22T02:16:27.523Z,8.24
2022-09-22T02:19:12.036Z,8.28
2022-09-22T02:21:42.326Z,8.34
2022-09-22T02:24:29.842Z,8.40
2022-09-22T02:26:59.997Z,8.40
2022-09-22T02:29:31.553Z,8.39
2022-09-22T02:32:01.947Z,8.36
2022-09-22T02:34:28.939Z,8.40
2022-09-22T02:37:20.857Z,8.34
2022-09-22T02:40:24.834Z,8.42
2022-09-22T02:43:10.798Z,8.39
2022-09-22T02:46:07.591Z,8.33
2022-09-22T02:48:53.359Z,8.34
2022-09-22T02:51:20.502Z,8.31
2022-09-22T02:53:47.261Z,8.32
2022-09-22T02:56:14.043Z,8.21
2022-09-22T02:58:40.777Z,8.09
2022-09-22T03:01:07.559Z,7.92
2022-09-22T03:03:34.372Z,7.79
2022-09-22T03:06:01.198Z,7.55
2022-09-22T03:08:27.952Z,7.60
2022-09-22T03:10:54.728Z,7.69
2022-09-22T03:13:21.519Z,7.68
2022-09-22T03:15:49.640Z,7.72
2022-09-22T03:18:16.616Z,7.66
2022-09-22T03:20:43.671Z,7.70
2022-09-22T03:23:10.603Z,7.68
2022-09-22T03:25:37.424Z,7.69
2022-09-22T03:28:04.226Z,7.71
2022-09-22T03:30:31.023Z,7.61
2022-09-22T03:32:57.865Z,7.65
2022-09-22T03:35:24.805Z,7.61
2022-09-22T03:37:51.590Z,7.50
2022-09-22T03:40:18.421Z,7.46
2022-09-22T03:42:45.236Z,7.46
2022-09-22T03:45:12.628Z,7.51
2022-09-22T03:47:39.489Z,7.52
2022-09-22T03:50:07.738Z,7.55
2022-09-22T03:52:35.018Z,7.58
2022-09-22T03:55:02.961Z,7.61
2022-09-22T03:57:30.196Z,7.68
2022-09-22T03:59:57.015Z,7.56
2022-09-22T04:02:23.857Z,7.56
2022-09-22T04:04:50.721Z,7.45
2022-09-22T04:07:17.475Z,7.28
2022-09-22T04:09:44.240Z,7.21
2022-09-22T04:12:11.034Z,7.23
2022-09-22T04:14:37.826Z,7.25
2022-09-22T04:17:05.849Z,7.33
2022-09-22T04:19:35.605Z,7.34
2022-09-22T04:22:04.076Z,7.38
2022-09-22T04:24:31.022Z,7.39
2022-09-22T04:27:18.458Z,7.31
2022-09-22T04:29:44.560Z,7.18
2022-09-22T04:32:11.309Z,7.18
2022-09-22T04:34:38.271Z,7.13
2022-09-22T04:37:05.145Z,7.11
2022-09-22T04:39:31.962Z,7.10
2022-09-22T04:41:58.717Z,7.03
2022-09-22T04:44:25.530Z,7.03
2022-09-22T04:46:52.599Z,7.01
2022-09-22T04:49:19.684Z,6.96
2022-09-22T04:51:46.567Z,6.96
2022-09-22T04:54:14.811Z,7.02
2022-09-22T04:56:42.674Z,7.08
2022-09-22T04:59:09.856Z,7.06
2022-09-22T05:01:36.855Z,7.03
2022-09-22T05:04:03.987Z,7.05
2022-09-22T05:06:31.134Z,7.06
2022-09-22T05:08:58.516Z,6.93
2022-09-22T05:11:25.495Z,6.82
2022-09-22T05:13:52.294Z,6.72
2022-09-22T05:16:19.468Z,6.63
2022-09-22T05:18:46.449Z,6.72
2022-09-22T05:21:13.217Z,6.76
2022-09-22T05:23:39.990Z,6.81
2022-09-22T05:26:06.875Z,6.81
2022-09-22T05:28:33.754Z,6.87
2022-09-22T05:31:00.730Z,6.96
2022-09-22T05:33:27.489Z,7.11
2022-09-22T05:35:54.247Z,7.34
2022-09-22T05:38:21.126Z,7.56
2022-09-22T05:40:48.053Z,7.75
2022-09-22T05:43:15.376Z,7.84
2022-09-22T05:45:44.092Z,7.85
2022-09-22T05:48:10.986Z,7.83
2022-09-22T05:50:38.071Z,7.86
2022-09-22T05:53:09.520Z,7.99
2022-09-22T05:55:38.623Z,7.87
2022-09-22T05:58:05.807Z,7.81
2022-09-22T06:00:33.039Z,7.81
2022-09-22T06:02:59.912Z,7.73
2022-09-22T06:05:27.065Z,7.72
2022-09-22T06:08:03.451Z,7.72
2022-09-22T06:10:35.239Z,7.84
2022-09-22T06:13:04.836Z,8.01
2022-09-22T06:15:34.119Z,8.32
2022-09-22T06:18:03.239Z,8.59
2022-09-22T06:20:30.018Z,8.91
2022-09-22T06:22:56.861Z,9.13
2022-09-22T06:25:24.068Z,9.13
2022-09-22T06:28:09.635Z,9.20
2022-09-22T06:30:41.275Z,9.48
2022-09-22T06:33:09.843Z,9.82
2022-09-22T06:35:37.479Z,10.03
2022-09-22T06:38:06.940Z,10.17
2022-09-22T06:40:36.410Z,10.52
2022-09-22T06:43:07.472Z,10.75
2022-09-22T06:45:34.789Z,10.93
2022-09-22T06:48:03.473Z,11.24
2022-09-22T06:50:33.425Z,11.60
2022-09-22T06:53:02.435Z,11.70
2022-09-22T06:55:30.691Z,11.73
2022-09-22T06:57:58.954Z,12.14
2022-09-22T07:00:31.136Z,12.38
2022-09-22T07:03:20.414Z,12.81
2022-09-22T07:06:01.074Z,12.83
2022-09-22T07:08:30.583Z,13.11
2022-09-22T07:11:04.235Z,13.39
2022-09-22T07:13:32.397Z,13.67
2022-09-22T07:16:01.590Z,13.80
2022-09-22T07:18:30.087Z,14.00
2022-09-22T07:21:12.472Z,14.05
2022-09-22T07:23:40.788Z,14.44
2022-09-22T07:26:12.175Z,14.75
2022-09-22T07:28:39.774Z,15.07
2022-09-22T07:31:11.270Z,14.96
2022-09-22T07:33:41.685Z,15.13
2022-09-22T07:36:18.947Z,15.28
2022-09-22T07:38:51.419Z,15.72
2022-09-22T07:41:27.629Z,15.77
2022-09-22T07:43:57.515Z,15.98
2022-09-22T07:46:24.556Z,15.96
2022-09-22T07:48:51.490Z,16.07
2022-09-22T07:51:24.437Z,16.33
2022-09-22T07:54:07.226Z,16.31
2022-09-22T07:56:42.395Z,16.46
2022-09-22T07:59:12.364Z,16.35
2022-09-22T08:01:44.089Z,16.08
2022-09-22T08:04:15.497Z,16.56
2022-09-22T08:06:47.204Z,16.60
2022-09-22T08:09:14.554Z,17.26
2022-09-22T08:11:45.875Z,17.47
2022-09-22T08:14:12.862Z,17.85
2022-09-22T08:16:40.791Z,17.91
2022-09-22T08:19:12.087Z,18.36
2022-09-22T08:21:48.963Z,18.48
2022-09-22T08:24:22.535Z,18.91
2022-09-22T08:26:52.255Z,18.92
2022-09-22T08:29:19.179Z,19.30
2022-09-22T08:31:46.779Z,18.97
2022-09-22T08:34:16.890Z,19.46
2022-09-22T08:36:47.018Z,19.02
2022-09-22T08:39:14.852Z,18.41
2022-09-22T08:42:18.243Z,18.52
2022-09-22T08:45:07.050Z,18.29
2022-09-22T08:48:04.863Z,18.15
2022-09-22T08:51:17.041Z,18.14
2022-09-22T08:53:50.208Z,18.06
2022-09-22T08:56:30.487Z,18.24
2022-09-22T08:59:22.899Z,18.16
2022-09-22T09:02:32.681Z,17.74
2022-09-22T09:05:30.322Z,18.03
2022-09-22T09:08:27.497Z,18.21
2022-09-22T09:11:10.392Z,18.01
2022-09-22T09:13:55.579Z,18.61
2022-09-22T09:17:01.250Z,18.67
2022-09-22T09:19:46.374Z,18.72
2022-09-22T09:22:27.447Z,19.20
2022-09-22T09:28:13.834Z,18.85
2022-09-22T09:30:51.111Z,18.58
2022-09-22T09:33:36.937Z,18.71
2022-09-22T09:36:04.178Z,18.90
2022-09-22T09:38:46.661Z,18.57
2022-09-22T09:41:17.968Z,18.74
2022-09-22T09:43:45.348Z,19.01
2022-09-22T09:46:29.182Z,18.94
2022-09-22T09:49:05.585Z,18.91
2022-09-22T09:51:41.288Z,19.49
2022-09-22T09:54:16.738Z,20.15
2022-09-22T09:57:03.995Z,19.76
2022-09-22T09:59:49.865Z,20.24
2022-09-22T10:02:22.146Z,19.23
2022-09-22T10:04:56.148Z,19.44
2022-09-22T10:07:40.315Z,19.54
2022-09-22T10:10:31.666Z,19.79
2022-09-22T10:13:04.428Z,20.03
2022-09-22T10:15:34.186Z,20.25
2022-09-22T10:18:02.211Z,19.73
2022-09-22T10:20:32.017Z,20.50
2022-09-22T10:23:22.312Z,20.62
2022-09-22T10:25:50.888Z,21.32
2022-09-22T10:28:20.938Z,20.38
2022-09-22T10:31:05.004Z,20.57
2022-09-22T10:33:33.204Z,20.01
2022-09-22T10:36:11.942Z,20.48
2022-09-22T10:38:43.737Z,20.65
2022-09-22T10:41:18.913Z,20.08
2022-09-22T10:43:53.396Z,19.94
2022-09-22T10:46:29.145Z,20.40
2022-09-22T10:49:21.094Z,20.00
2022-09-22T10:52:11.297Z,20.15
2022-09-22T10:55:17.128Z,20.36
2022-09-22T10:58:08.909Z,20.11
2022-09-22T11:00:39.247Z,20.68
2022-09-22T11:03:15.374Z,20.61
2022-09-22T11:06:42.700Z,20.72
2022-09-22T11:09:54.119Z,20.75
2022-09-22T11:12:37.180Z,21.61
2022-09-22T11:15:30.696Z,21.17
2022-09-22T11:18:27.412Z,21.32
2022-09-22T11:21:18.299Z,21.84
2022-09-22T11:24:04.687Z,21.97
2022-09-22T11:26:57.045Z,22.60
2022-09-22T11:29:54.012Z,23.03
2022-09-22T11:32:20.666Z,22.44
2022-09-22T11:35:10.290Z,21.42
2022-09-22T11:38:29.358Z,22.14
2022-09-22T11:41:20.542Z,21.83
2022-09-22T11:43:59.342Z,22.42
2022-09-22T11:47:12.601Z,23.00
2022-09-22T11:50:22.318Z,23.25
2022-09-22T11:53:27.203Z,23.37
2022-09-22T11:56:33.245Z,22.79
2022-09-22T11:59:10.807Z,23.68
2022-09-22T12:01:40.196Z,24.52
2022-09-22T12:04:55.066Z,25.67
2022-09-22T12:07:30.321Z,26.22
2022-09-22T12:10:15.610Z,27.07
2022-09-22T12:12:48.406Z,27.21
2022-09-22T12:15:38.279Z,27.00
2022-09-22T12:18:44.785Z,27.02
2022-09-22T12:22:23.535Z,27.48
2022-09-22T12:24:50.302Z,27.68
2022-09-22T12:27:23.938Z,28.95
2022-09-22T12:30:05.600Z,28.38
2022-09-22T12:32:40.404Z,29.44
2022-09-22T12:35:17.870Z,30.67
2022-09-22T12:37:44.893Z,29.85
2022-09-22T12:40:30.706Z,30.55
2022-09-22T12:42:59.314Z,29.65
2022-09-22T12:45:34.382Z,31.18
2022-09-22T12:48:29.062Z,32.36
2022-09-22T12:51:15.194Z,31.52
2022-09-22T12:53:43.838Z,32.14
2022-09-22T12:56:40.239Z,30.10
2022-09-22T12:59:36.012Z,31.49
2022-09-22T13:02:15.797Z,33.21
2022-09-22T13:05:03.548Z,32.59
2022-09-22T13:07:44.199Z,32.77
2022-09-22T13:10:23.278Z,33.76
2022-09-22T13:13:02.490Z,34.14
2022-09-22T13:15:47.301Z,32.88
2022-09-22T13:18:37.185Z,31.73
2022-09-22T13:21:25.653Z,29.59
2022-09-22T13:23:55.093Z,27.97
2022-09-22T13:26:35.093Z,28.24
2022-09-22T13:29:18.339Z,30.87
2022-09-22T13:31:51.375Z,32.14
2022-09-22T13:34:27.260Z,33.54
2022-09-22T13:37:01.698Z,32.64
2022-09-22T13:39:33.636Z,34.49
2022-09-22T13:42:14.346Z,34.25
2022-09-22T13:44:44.419Z,34.20
2022-09-22T13:47:29.740Z,34.47
2022-09-22T13:50:12.795Z,34.18
2022-09-22T13:52:40.447Z,35.82
2022-09-22T13:55:20.304Z,36.29
2022-09-22T13:57:47.533Z,35.96
2022-09-22T14:00:41.326Z,35.57
2022-09-22T14:03:21.479Z,34.47
2022-09-22T14:05:53.739Z,36.11
2022-09-22T14:08:31.790Z,36.11
2022-09-22T14:10:59.708Z,36.43
2022-09-22T14:13:39.838Z,36.98
2022-09-22T14:16:16.095Z,36.24
2022-09-22T14:18:51.182Z,33.97
2022-09-22T14:21:18.536Z,34.29
2022-09-22T14:23:49.258Z,34.37
2022-09-22T14:26:30.244Z,35.60
2022-09-22T14:28:59.005Z,35.75
2022-09-22T14:31:30.380Z,36.78
2022-09-22T14:33:57.325Z,37.22
2022-09-22T14:36:28.224Z,36.71
2022-09-22T14:39:09.750Z,35.37
2022-09-22T14:41:38.222Z,32.84
2022-09-22T14:44:48.301Z,30.57
2022-09-22T14:47:27.622Z,30.77
2022-09-22T14:50:37.125Z,33.89
2022-09-22T14:53:17.043Z,35.20
2022-09-22T14:55:48.753Z,35.28
2022-09-22T14:58:30.954Z,35.50
2022-09-22T15:01:52.763Z,36.02
2022-09-22T15:04:24.929Z,34.71
2022-09-22T15:06:57.025Z,34.72
2022-09-22T15:09:42.645Z,34.26
2022-09-22T15:12:46.202Z,35.05
2022-09-22T15:15:29.041Z,34.01
2022-09-22T15:18:13.282Z,34.69
2022-09-22T15:20:49.908Z,34.38
2022-09-22T15:23:49.223Z,34.85
2022-09-22T15:26:26.930Z,35.15
2022-09-22T15:28:56.730Z,33.41
2022-09-22T15:31:32.740Z,29.93
2022-09-22T15:34:02.859Z,26.76
2022-09-22T15:36:32.640Z,25.39
2022-09-22T15:39:06.675Z,24.07
2022-09-22T15:41:34.788Z,23.26
2022-09-22T15:44:02.860Z,22.04
2022-09-22T15:46:34.998Z,21.67
2022-09-22T15:49:12.221Z,21.00
2022-09-22T15:51:39.019Z,20.65
2022-09-22T15:54:17.552Z,20.34
2022-09-22T15:56:47.960Z,20.11
2022-09-22T15:59:22.702Z,20.05
2022-09-22T16:01:51.843Z,19.71
2022-09-22T16:04:20.042Z,19.42
2022-09-22T16:06:54.278Z,19.55
2022-09-22T16:09:21.260Z,19.45
2022-09-22T16:11:48.161Z,19.36
2022-09-22T16:14:14.923Z,19.06
2022-09-22T16:16:44.018Z,18.91
2022-09-22T16:19:10.859Z,18.77
2022-09-22T16:21:47.923Z,18.60
2022-09-22T16:24:15.012Z,18.41
2022-09-22T16:26:41.778Z,18.25
2022-09-22T16:29:09.113Z,18.11
2022-09-22T16:31:37.374Z,18.08
2022-09-22T16:34:06.374Z,18.02
2022-09-22T16:36:36.011Z,17.94
2022-09-22T16:39:03.999Z,17.94
2022-09-22T16:41:33.397Z,17.85
2022-09-22T16:44:01.220Z,17.70
2022-09-22T16:46:30.237Z,17.58
2022-09-22T16:49:12.645Z,17.46
2022-09-22T16:51:47.420Z,17.26
2022-09-22T16:54:14.639Z,17.18
2022-09-22T16:56:44.382Z,16.97
2022-09-22T16:59:15.007Z,16.82
2022-09-22T17:01:43.535Z,16.57
2022-09-22T17:04:15.683Z,16.39
2022-09-22T17:06:43.011Z,16.17
2022-09-22T17:09:11.646Z,16.05
2022-09-22T17:11:41.746Z,15.89
2022-09-22T17:14:21.494Z,15.79
2022-09-22T17:16:51.950Z,15.67
2022-09-22T17:19:23.265Z,15.59
2022-09-22T17:21:52.706Z,15.43
2022-09-22T17:24:19.707Z,15.39
2022-09-22T17:26:50.136Z,15.25
2022-09-22T17:29:24.850Z,15.18
2022-09-22T17:31:59.170Z,15.08
2022-09-22T17:34:32.835Z,14.89
2022-09-22T17:37:00.916Z,14.77
2022-09-22T17:39:29.280Z,14.71
2022-09-22T17:41:56.472Z,14.60
2022-09-22T17:44:24.063Z,14.48
2022-09-22T17:47:15.781Z,14.40
2022-09-22T17:50:08.555Z,14.22
2022-09-22T17:52:53.951Z,14.08
2022-09-22T17:55:25.206Z,13.92
2022-09-22T17:57:52.703Z,13.89
2022-09-22T18:00:22.666Z,13.69
2022-09-22T18:02:52.508Z,13.61
2022-09-22T18:05:25.377Z,13.67
2022-09-22T18:07:58.238Z,13.62
2022-09-22T18:10:32.047Z,13.67
2022-09-22T18:12:59.897Z,13.60
2022-09-22T18:15:27.970Z,13.56
2022-09-22T18:17:57.605Z,13.47
2022-09-22T18:20:25.670Z,13.49
2022-09-22T18:22:52.570Z,13.45
2022-09-22T18:25:22.952Z,13.38
2022-09-22T18:27:49.843Z,13.31
2022-09-22T18:30:19.090Z,13.27
2022-09-22T18:32:47.514Z,13.14
2022-09-22T18:35:14.595Z,13.07
2022-09-22T18:37:41.887Z,13.03
2022-09-22T18:40:10.249Z,13.08
2022-09-22T18:42:37.029Z,13.06
2022-09-22T18:45:04.536Z,13.01
2022-09-22T18:47:31.307Z,13.01
2022-09-22T18:49:59.144Z,12.99
2022-09-22T18:52:26.000Z,12.93
2022-09-22T18:54:54.111Z,12.92
2022-09-22T18:57:24.339Z,12.89
2022-09-22T18:59:51.403Z,12.77
2022-09-22T19:02:22.359Z,12.76
2022-09-22T19:04:51.476Z,12.72
2022-09-22T19:07:41.551Z,12.68
2022-09-22T19:10:13.842Z,12.66
2022-09-22T19:12:40.830Z,12.69
2022-09-22T19:15:13.461Z,12.67
2022-09-22T19:17:43.891Z,12.68
2022-09-22T19:20:13.471Z,12.65
2022-09-22T19:22:40.822Z,12.52
2022-09-22T19:25:08.219Z,12.50
2022-09-22T19:27:35.450Z,12.44
2022-09-22T19:30:02.715Z,12.38
2022-09-22T19:32:29.527Z,12.34
2022-09-22T19:34:56.922Z,12.33
2022-09-22T19:37:24.810Z,12.31
2022-09-22T19:39:51.626Z,12.27
2022-09-22T19:42:18.883Z,12.21
2022-09-22T19:44:45.629Z,12.11
2022-09-22T19:47:12.431Z,12.03
2022-09-22T19:49:42.225Z,12.01
2022-09-22T19:52:09.273Z,11.74
2022-09-22T19:54:36.025Z,11.77
2022-09-22T19:57:02.996Z,11.51
2022-09-22T19:59:29.830Z,11.42
2022-09-22T20:01:56.704Z,11.45
2022-09-22T20:04:23.502Z,11.45
2022-09-22T20:06:50.294Z,11.55
2022-09-22T20:09:17.239Z,11.58
2022-09-22T20:11:49.551Z,11.61
2022-09-22T20:14:25.188Z,11.65
2022-09-22T20:17:01.820Z,11.64
2022-09-22T20:19:31.659Z,11.67
2022-09-22T20:22:25.608Z,11.60
2022-09-22T20:24:57.249Z,11.55
2022-09-22T20:27:32.589Z,11.44
2022-09-22T20:30:00.715Z,11.37
2022-09-22T20:32:34.514Z,11.26
2022-09-22T20:35:01.651Z,11.26
2022-09-22T20:37:29.876Z,11.20
2022-09-22T20:39:57.388Z,11.10
2022-09-22T20:42:24.293Z,11.09
2022-09-22T20:44:51.103Z,11.06
2022-09-22T20:47:21.839Z,11.06
2022-09-22T20:49:51.744Z,11.01
2022-09-22T20:52:20.842Z,11.03
2022-09-22T20:54:48.249Z,11.00
2022-09-22T20:57:15.518Z,10.96
2022-09-22T20:59:45.018Z,10.97
2022-09-22T21:02:13.913Z,10.95
2022-09-22T21:04:41.061Z,10.96
2022-09-22T21:07:08.306Z,10.95
2022-09-22T21:09:53.739Z,10.94
2022-09-22T21:12:20.492Z,10.91
2022-09-22T21:14:47.261Z,10.88
2022-09-22T21:17:15.494Z,10.79
2022-09-22T21:19:43.155Z,10.80
2022-09-22T21:22:10.259Z,10.77
2022-09-22T21:24:37.068Z,10.72
2022-09-22T21:27:04.914Z,10.78
2022-09-22T21:29:31.894Z,10.82
2022-09-22T21:31:59.636Z,10.83
2022-09-22T21:34:27.200Z,10.80
2022-09-22T21:36:53.938Z,10.81
2022-09-22T21:39:21.371Z,10.78
2022-09-22T21:41:48.298Z,10.74
2022-09-22T21:44:15.188Z,10.68
2022-09-22T21:46:42.437Z,10.63
2022-09-22T21:49:10.182Z,10.57
2022-09-22T21:51:44.128Z,10.54
2022-09-22T21:54:18.104Z,10.58
2022-09-22T21:56:46.102Z,10.58
2022-09-22T21:59:13.364Z,10.51
2022-09-22T22:01:42.055Z,10.54
2022-09-22T22:04:10.105Z,10.60
2022-09-22T22:06:42.979Z,10.55
2022-09-22T22:09:22.343Z,10.60
2022-09-22T22:11:56.763Z,10.67
2022-09-22T22:14:29.359Z,10.73
2022-09-22T22:16:56.157Z,10.69
2022-09-22T22:19:26.604Z,10.66
2022-09-22T22:21:54.665Z,10.69
2022-09-22T22:24:28.563Z,10.69
2022-09-22T22:26:57.172Z,10.73
2022-09-22T22:29:27.009Z,10.66
2022-09-22T22:31:54.303Z,10.64
2022-09-22T22:34:27.055Z,10.61
2022-09-22T22:36:55.384Z,10.60
2022-09-22T22:39:22.128Z,10.53
2022-09-22T22:41:48.883Z,10.50
2022-09-22T22:44:19.030Z,10.57
2022-09-22T22:46:46.779Z,10.56
2022-09-22T22:49:14.124Z,10.63
2022-09-22T22:51:45.584Z,10.61
2022-09-22T22:54:13.253Z,10.65
2022-09-22T22:56:42.444Z,10.66
2022-09-22T22:59:10.538Z,10.67
2022-09-22T23:01:37.648Z,10.66
2022-09-22T23:04:07.452Z,10.68
2022-09-22T23:06:43.921Z,10.62
2022-09-22T23:09:15.304Z,10.60
2022-09-22T23:11:43.422Z,10.61
2022-09-22T23:14:12.241Z,10.59
2022-09-22T23:16:45.490Z,10.60
2022-09-22T23:19:16.023Z,10.59
2022-09-22T23:21:42.841Z,10.56
2022-09-22T23:24:12.379Z,10.55
2022-09-22T23:26:40.406Z,10.54
2022-09-22T23:29:07.242Z,10.49
2022-09-22T23:31:34.139Z,10.47
2022-09-22T23:34:01.181Z,10.47
2022-09-22T23:36:29.767Z,10.37
2022-09-22T23:39:05.828Z,10.24
2022-09-22T23:41:35.399Z,10.11
2022-09-22T23:44:03.150Z,9.99
2022-09-22T23:46:30.636Z,9.79
2022-09-22T23:48:59.944Z,9.84
2022-09-22T23:51:27.310Z,9.77
2022-09-22T23:53:54.115Z,9.72
2022-09-22T23:56:20.877Z,9.68
2022-09-22T23:58:47.918Z,9.68
